Portada
METAR-TAF:

METAR-TAF

Aeropuertos :

Aeropuerto Internacional Cesária Évora

Isla de São Vicente, Cabo Verde

latitud: 16-49-59N, longitud: 25-03-25W, altitud: 20 m

Observación

El informe se hizo hace 18 minutos, a las 05:00 UTC
Viento 13 kt del este-noreste
Temperatura 23°C
Humedad 78%
Presión 1016 hPa
Visibilidad 10 km o más
Nubes dispersas a una altura de 2000 ft

METAR: GVSV 250500Z 07013KT 9999 SCT020 23/19 Q1016 NOSIG

Hora: 04:18 (05:18 UTC)

Pronóstico

El informe se hizo hace 6 horas y 18 minutos, a las 23:00 UTC
Pronóstico válido del 25 a las 00 UTC al 26 a las 06 UTC
Viento 16 kt del este-noreste
Visibilidad 10 km o más
Escasas nubes a una altura de 2000 ft
Probabilidad 40% :
Temporalmente
del 25 a las 12 UTC al 25 a las 18 UTC
Viento 16 kt del este-noreste con ráfagas de 26 kt

TAF: GVSV 242300Z 2500/2606 06016KT 9999 FEW020 PROB40 TEMPO 2512/2518 06016G26KT

Observaciones y pronósticos meteorológicos de más de 4000 aeropuertos (mensajes METAR y TAF).

Los puntos amarillos y rojos representan las estaciones disponibles.

Ponga el ratón en el punto deseado para ver el nombre de la estación.

Haga clic para ver las observaciones y los pronósticos meteorológicos.

Para cambiar el mapa : haga clic en los botones verdes con una cruz de color negro para hacer un zoom, en el botón verde con un guión para alejar o en las flechas verdes para mapas adyacentes.


METAR-TAF: